Champion, NE (69023)

6:35 AM MDT on September 03, 2015 (GMT -0600)
Northwest Chase County | | Change Station
CLOSE
Current Station
Personal Weather Station
Location: Venango, NE
Elevation: 3494 ft
Nearby Weather Stations

Elev 3494 ft 40.67 °N, 101.91 °W | Updated 12 minutes ago

Clear
Clear
58.5 °F
Feels Like 58.5 °F
N
3.2
Wind Variable Wind from West

Today
High -- | Low -- °F
--% Chance of Precip.
Yesterday
High -- | Low -- °F
Precip. -- in
6:16 AM 7:15 PM
Waning Gibbous, 70% visible
Pressure 29.75 in
Visibility 10.0 miles
Clouds Clear
Dew Point 56 °F
Humidity 91%
Rainfall 0.00 in
Snow Depth Not available.
UV 0 out of 12
Pollen 10.70 out of 12
Air Quality Not available.
Flu Activity Not available.
METAR KIML 031153Z AUTO 00000KT 10SM CLR 14/12 A2986 RMK AO2 SLP074 T01440117 10233 20139 53002
Pressure 29.75 in
Visibility 10.0 miles
Clouds Clear
Dew Point 56 °F
Humidity 91%
Rainfall 0.00 in
Snow Depth Not available.
UV 0 out of 12
Pollen 10.70 out of 12
Air Quality Not available.
Flu Activity Not available.
METAR KIML 031153Z AUTO 00000KT 10SM CLR 14/12 A2986 RMK AO2 SLP074 T01440117 10233 20139 53002

10-Day Weather Forecast

×

Almanac

Astronomy

Sep. 03, 2015 Rise Set
Actual Time
Civil Twilight
Nautical Twilight
Astronomical Twilight
Moon
Length of Visible Light
Length of Day
Tomorrow will be .
, % of the Moon is Illuminated

Today's Extremes

State Highs State Lows

Community

WunderPhotos

Upload Photos

1,851,946 photos uploaded!

WunderBlogs® & News

Nearby

Air Quality

  Air Quality AQ Index Pollutant
Not available.

Snow Depth

Station Depth Elevation

Earthquake Activity

City Distance Mag. Time & Date
Minimum magnitude displayed is 2.5.

Coastal Water Temperatures

Place Temperature

Stations

Nearby Weather Stations

Station Location Temp. Windchill Dew Point Humidity Wind Precip. Elev Updated Type